createdAt,value
2018-11-22T00:00:49.144Z,109.50
2018-11-22T00:01:49.095Z,100.60
2018-11-22T00:02:49.047Z,111.00
2018-11-22T00:03:49.016Z,101.80
2018-11-22T00:04:48.975Z,104.10
2018-11-22T00:05:48.940Z,102.80
2018-11-22T00:06:48.908Z,105.10
2018-11-22T00:07:48.861Z,104.90
2018-11-22T00:08:48.826Z,109.30
2018-11-22T00:09:48.781Z,105.50
2018-11-22T00:10:48.745Z,101.70
2018-11-22T00:11:48.712Z,102.70
2018-11-22T00:12:48.668Z,100.60
2018-11-22T00:13:48.629Z,102.60
2018-11-22T00:14:48.579Z,105.30
2018-11-22T00:15:48.549Z,102.30
2018-11-22T00:16:48.496Z,98.90
2018-11-22T00:17:48.472Z,95.00
2018-11-22T00:18:48.422Z,100.90
2018-11-22T00:19:48.393Z,101.80
2018-11-22T00:20:48.378Z,100.90
2018-11-22T00:21:48.361Z,104.00
2018-11-22T00:22:48.264Z,101.00
2018-11-22T00:23:48.215Z,103.10
2018-11-22T00:24:48.183Z,102.10
2018-11-22T00:25:48.159Z,104.70
2018-11-22T00:26:48.114Z,102.50
2018-11-22T00:27:48.070Z,102.80
2018-11-22T00:28:48.024Z,99.70
2018-11-22T00:29:47.988Z,104.40
2018-11-22T00:30:47.967Z,108.10
2018-11-22T00:31:47.903Z,104.70
2018-11-22T00:32:47.886Z,100.50
2018-11-22T00:33:47.834Z,95.40
2018-11-22T00:34:47.783Z,103.20
2018-11-22T00:35:47.753Z,96.10
2018-11-22T00:36:47.716Z,102.50
2018-11-22T00:37:47.668Z,98.80
2018-11-22T00:38:47.630Z,92.30
2018-11-22T00:39:47.590Z,103.20
2018-11-22T00:40:47.566Z,96.00
2018-11-22T00:41:47.507Z,98.40
2018-11-22T00:42:47.467Z,102.20
2018-11-22T00:43:47.463Z,99.80
2018-11-22T00:45:54.400Z,99.40
2018-11-22T00:46:47.306Z,98.40
2018-11-22T00:47:47.268Z,97.30
2018-11-22T00:48:47.222Z,107.90
2018-11-22T00:49:47.184Z,100.80
2018-11-22T00:50:47.140Z,101.50
2018-11-22T00:51:47.116Z,99.70
2018-11-22T00:52:47.067Z,102.10
2018-11-22T00:53:47.024Z,102.30
2018-11-22T00:54:46.986Z,98.00
2018-11-22T00:55:46.946Z,98.20
2018-11-22T00:56:46.927Z,106.20
2018-11-22T00:57:46.871Z,97.70
2018-11-22T00:58:46.827Z,98.20
2018-11-22T00:59:46.791Z,98.60
2018-11-22T01:00:46.746Z,96.70
2018-11-22T01:01:46.716Z,91.20
2018-11-22T01:02:46.665Z,99.10
2018-11-22T01:03:46.625Z,92.40
2018-11-22T01:04:46.590Z,103.00
2018-11-22T01:05:46.547Z,96.50
2018-11-22T01:06:46.517Z,94.80
2018-11-22T01:07:46.467Z,102.70
2018-11-22T01:08:46.427Z,97.10
2018-11-22T01:09:46.388Z,99.40
2018-11-22T01:10:46.350Z,94.50
2018-11-22T01:11:46.317Z,100.70
2018-11-22T01:12:46.271Z,94.60
2018-11-22T01:13:46.232Z,99.20
2018-11-22T01:14:46.189Z,97.80
2018-11-22T01:15:46.149Z,99.30
2018-11-22T01:16:46.120Z,93.70
2018-11-22T01:17:46.069Z,98.80
2018-11-22T01:18:46.035Z,93.50
2018-11-22T01:19:45.990Z,95.10
2018-11-22T01:20:45.950Z,95.60
2018-11-22T01:21:45.920Z,93.70
2018-11-22T01:22:45.875Z,100.60
2018-11-22T01:23:45.828Z,93.70
2018-11-22T01:24:45.791Z,96.50
2018-11-22T01:25:45.758Z,96.70
2018-11-22T01:26:45.724Z,95.70
2018-11-22T01:27:45.670Z,97.40
2018-11-22T01:28:45.634Z,96.10
2018-11-22T01:29:45.592Z,95.30
2018-11-22T01:30:45.558Z,93.00
2018-11-22T01:31:45.512Z,99.20
2018-11-22T01:32:52.527Z,96.40
2018-11-22T01:33:45.436Z,99.10
2018-11-22T01:34:45.401Z,95.60
2018-11-22T01:35:45.353Z,93.70
2018-11-22T01:36:45.314Z,91.00
2018-11-22T01:37:45.285Z,97.10
2018-11-22T01:38:45.249Z,101.50
2018-11-22T01:39:45.194Z,103.70
2018-11-22T01:40:45.153Z,92.30
2018-11-22T01:41:45.112Z,93.30
2018-11-22T01:42:45.114Z,96.40
2018-11-22T01:43:45.031Z,98.10
2018-11-22T01:44:44.993Z,100.20
2018-11-22T01:45:44.952Z,95.00
2018-11-22T01:46:44.910Z,92.30
2018-11-22T01:47:44.882Z,93.50
2018-11-22T01:48:44.834Z,103.30
2018-11-22T01:49:44.793Z,88.20
2018-11-22T01:50:44.751Z,91.20
2018-11-22T01:51:44.710Z,94.60
2018-11-22T01:52:44.693Z,94.30
2018-11-22T01:53:44.632Z,93.30
2018-11-22T01:54:44.592Z,90.70
2018-11-22T01:55:44.553Z,89.60
2018-11-22T01:56:44.511Z,93.50
2018-11-22T01:57:44.482Z,88.80
2018-11-22T01:58:44.436Z,88.50
2018-11-22T01:59:44.393Z,93.30
2018-11-22T02:00:44.351Z,92.50
2018-11-22T02:01:44.330Z,89.90
2018-11-22T02:02:44.272Z,91.10
2018-11-22T02:03:44.231Z,91.10
2018-11-22T02:04:44.192Z,98.50
2018-11-22T02:05:44.151Z,84.30
2018-11-22T02:06:44.112Z,89.60
2018-11-22T02:07:44.081Z,96.50
2018-11-22T02:08:44.035Z,93.90
2018-11-22T02:09:43.991Z,92.00
2018-11-22T02:10:43.949Z,87.40
2018-11-22T02:11:43.911Z,86.80
2018-11-22T02:12:43.882Z,94.00
2018-11-22T02:13:43.833Z,95.70
2018-11-22T02:14:43.790Z,89.70
2018-11-22T02:15:43.752Z,96.40
2018-11-22T02:16:43.715Z,88.10
2018-11-22T02:17:43.684Z,86.30
2018-11-22T02:18:43.632Z,90.00
2018-11-22T02:19:43.593Z,94.00
2018-11-22T02:20:43.554Z,89.10
2018-11-22T02:21:43.510Z,93.50
2018-11-22T02:22:43.493Z,91.20
2018-11-22T02:23:43.429Z,82.50
2018-11-22T02:24:43.393Z,92.30
2018-11-22T02:25:43.351Z,93.50
2018-11-22T02:26:43.317Z,91.10
2018-11-22T02:27:43.273Z,85.50
2018-11-22T02:28:43.243Z,87.00
2018-11-22T02:29:43.194Z,88.60
2018-11-22T02:30:43.151Z,87.50
2018-11-22T02:31:43.114Z,86.30
2018-11-22T02:32:43.075Z,87.00
2018-11-22T02:33:43.054Z,83.60
2018-11-22T02:34:42.993Z,87.10
2018-11-22T02:35:42.953Z,91.30
2018-11-22T02:36:42.916Z,88.80
2018-11-22T02:37:42.872Z,82.50
2018-11-22T02:38:42.835Z,85.80
2018-11-22T02:39:42.805Z,83.20
2018-11-22T02:40:42.754Z,84.40
2018-11-22T02:41:42.715Z,86.40
2018-11-22T02:42:42.675Z,88.90
2018-11-22T02:43:42.632Z,88.10
2018-11-22T02:44:42.605Z,87.70
2018-11-22T02:45:42.555Z,87.30
2018-11-22T02:46:42.523Z,90.60
2018-11-22T02:47:42.472Z,84.40
2018-11-22T02:48:42.436Z,88.80
2018-11-22T02:49:42.403Z,82.50
2018-11-22T02:50:42.354Z,85.60
2018-11-22T02:51:42.319Z,86.60
2018-11-22T02:52:42.279Z,82.50
2018-11-22T02:53:42.237Z,92.70
2018-11-22T02:54:42.214Z,86.00
2018-11-22T02:55:42.159Z,86.40
2018-11-22T02:56:42.119Z,87.50
2018-11-22T02:57:42.076Z,87.20
2018-11-22T02:58:42.035Z,83.20
2018-11-22T02:59:41.994Z,88.20
2018-11-22T03:00:41.969Z,85.40
2018-11-22T03:01:41.917Z,81.70
2018-11-22T03:02:41.886Z,86.40
2018-11-22T03:03:41.840Z,88.90
2018-11-22T03:04:41.798Z,87.30
2018-11-22T03:05:48.835Z,83.50
2018-11-22T03:06:49.610Z,82.90
2018-11-22T03:07:41.679Z,87.10
2018-11-22T03:08:41.637Z,82.80
2018-11-22T03:09:41.592Z,84.00
2018-11-22T03:10:41.565Z,81.50
2018-11-22T03:11:41.514Z,79.70
2018-11-22T03:12:41.477Z,87.20
2018-11-22T03:13:41.439Z,89.20
2018-11-22T03:14:41.398Z,87.30
2018-11-22T03:15:41.382Z,88.90
2018-11-22T03:16:41.319Z,83.80
2018-11-22T03:17:41.275Z,85.30
2018-11-22T03:18:41.236Z,86.00
2018-11-22T03:19:41.195Z,79.50
2018-11-22T03:20:41.159Z,82.60
2018-11-22T03:21:41.125Z,88.30
2018-11-22T03:22:41.076Z,82.10
2018-11-22T03:23:41.038Z,84.80
2018-11-22T03:24:40.997Z,83.60
2018-11-22T03:25:40.954Z,77.60
2018-11-22T03:26:40.929Z,76.70
2018-11-22T03:27:40.877Z,83.40
2018-11-22T03:28:40.839Z,89.60
2018-11-22T03:29:40.797Z,84.00
2018-11-22T03:30:40.760Z,84.50
2018-11-22T03:31:40.738Z,89.60
2018-11-22T03:32:40.686Z,84.00
2018-11-22T03:33:40.642Z,87.20
2018-11-22T03:34:40.596Z,86.70
2018-11-22T03:35:40.560Z,76.60
2018-11-22T03:36:40.538Z,80.70
2018-11-22T03:37:40.476Z,80.30
2018-11-22T03:38:40.438Z,78.90
2018-11-22T03:39:40.393Z,88.00
2018-11-22T03:40:40.360Z,82.60
2018-11-22T03:41:40.343Z,81.90
2018-11-22T03:42:40.278Z,81.90
2018-11-22T03:43:40.239Z,81.40
2018-11-22T03:44:40.204Z,80.20
2018-11-22T03:45:40.161Z,84.60
2018-11-22T03:46:40.120Z,79.80
2018-11-22T03:47:40.092Z,77.90
2018-11-22T03:48:40.044Z,83.50
2018-11-22T03:49:39.999Z,87.10
2018-11-22T03:50:39.962Z,84.90
2018-11-22T03:51:39.919Z,77.20
2018-11-22T03:52:39.891Z,79.40
2018-11-22T03:53:39.841Z,85.40
2018-11-22T03:54:39.802Z,78.30
2018-11-22T03:55:39.760Z,80.80
2018-11-22T03:56:39.721Z,82.30
2018-11-22T03:57:39.708Z,81.30
2018-11-22T03:58:39.645Z,84.60
2018-11-22T03:59:39.606Z,79.80
2018-11-22T04:00:39.563Z,84.10
2018-11-22T04:01:39.524Z,86.10
2018-11-22T04:02:39.485Z,84.30
2018-11-22T04:03:39.454Z,83.90
2018-11-22T04:04:39.402Z,76.60
2018-11-22T04:05:39.362Z,79.90
2018-11-22T04:06:39.323Z,78.80
2018-11-22T04:07:39.285Z,77.60
2018-11-22T04:08:39.253Z,79.70
2018-11-22T04:09:39.201Z,82.10
2018-11-22T04:10:39.166Z,79.70
2018-11-22T04:11:39.128Z,86.80
2018-11-22T04:12:39.085Z,81.60
2018-11-22T04:13:39.054Z,82.80
2018-11-22T04:14:39.006Z,85.20
2018-11-22T04:15:38.967Z,79.40
2018-11-22T04:16:38.925Z,85.00
2018-11-22T04:17:38.886Z,83.40
2018-11-22T04:18:38.854Z,83.10
2018-11-22T04:19:38.813Z,87.00
2018-11-22T04:20:38.769Z,82.50
2018-11-22T04:21:38.736Z,85.70
2018-11-22T04:22:38.689Z,82.80
2018-11-22T04:23:38.659Z,84.50
2018-11-22T04:24:38.612Z,89.90
2018-11-22T04:25:38.566Z,83.60
2018-11-22T04:26:38.530Z,79.90
2018-11-22T04:27:38.494Z,83.60
2018-11-22T04:28:38.469Z,77.40
2018-11-22T04:29:38.409Z,79.30
2018-11-22T04:30:38.367Z,83.70
2018-11-22T04:31:38.330Z,85.80
2018-11-22T04:32:38.290Z,87.00
2018-11-22T04:33:38.257Z,82.90
2018-11-22T04:34:38.210Z,83.50
2018-11-22T04:35:38.169Z,80.00
2018-11-22T04:36:38.134Z,84.40
2018-11-22T04:37:38.091Z,81.40
2018-11-22T04:38:38.061Z,83.60
2018-11-22T04:39:38.010Z,79.20
2018-11-22T04:40:47.662Z,81.90
2018-11-22T04:41:37.931Z,84.20
2018-11-22T04:42:37.890Z,81.30
2018-11-22T04:43:37.878Z,78.30
2018-11-22T04:44:37.819Z,85.10
2018-11-22T04:45:37.775Z,80.80
2018-11-22T04:46:37.735Z,78.00
2018-11-22T04:47:37.693Z,78.30
2018-11-22T04:48:37.650Z,81.30
2018-11-22T04:49:37.627Z,79.00
2018-11-22T04:50:37.574Z,74.30
2018-11-22T04:51:37.532Z,83.40
2018-11-22T04:52:37.491Z,80.90
2018-11-22T04:53:37.451Z,83.80
2018-11-22T04:54:37.426Z,85.80
2018-11-22T04:55:37.374Z,82.50
2018-11-22T04:56:37.337Z,81.40
2018-11-22T04:57:37.291Z,79.30
2018-11-22T04:58:37.253Z,80.70
2018-11-22T04:59:37.226Z,82.10
2018-11-22T05:00:37.173Z,80.90
2018-11-22T05:01:37.135Z,78.50
2018-11-22T05:02:37.096Z,85.30
2018-11-22T05:03:37.061Z,82.40
2018-11-22T05:04:38.168Z,84.30
2018-11-22T05:05:36.976Z,78.40
2018-11-22T05:06:36.933Z,79.90
2018-11-22T05:07:36.908Z,81.10
2018-11-22T05:08:36.858Z,85.80
2018-11-22T05:09:36.816Z,81.30
2018-11-22T05:10:36.783Z,85.20
2018-11-22T05:11:36.734Z,81.90
2018-11-22T05:12:36.696Z,80.80
2018-11-22T05:13:36.657Z,78.20
2018-11-22T05:14:36.618Z,82.30
2018-11-22T05:15:36.598Z,78.40
2018-11-22T05:16:36.536Z,80.60
2018-11-22T05:17:36.503Z,78.10
2018-11-22T05:18:36.465Z,75.50
2018-11-22T05:19:36.415Z,79.70
2018-11-22T05:20:36.396Z,82.20
2018-11-22T05:21:36.340Z,83.70
2018-11-22T05:22:36.304Z,81.00
2018-11-22T05:23:36.257Z,77.30
2018-11-22T05:24:36.217Z,81.00
2018-11-22T05:25:36.186Z,75.70
2018-11-22T05:26:36.137Z,78.70
2018-11-22T05:27:36.096Z,82.30
2018-11-22T05:28:36.058Z,82.90
2018-11-22T05:29:36.019Z,81.90
2018-11-22T05:30:36.002Z,80.60
2018-11-22T05:31:35.945Z,81.90
2018-11-22T05:32:35.901Z,86.70
2018-11-22T05:33:35.867Z,82.20
2018-11-22T05:34:35.833Z,84.40
2018-11-22T05:35:35.779Z,81.60
2018-11-22T05:36:35.756Z,80.80
2018-11-22T05:37:35.699Z,81.30
2018-11-22T05:38:35.659Z,78.10
2018-11-22T05:39:35.620Z,78.60
2018-11-22T05:40:35.580Z,77.80
2018-11-22T05:41:35.551Z,80.20
2018-11-22T05:42:35.501Z,78.00
2018-11-22T05:43:35.466Z,77.90
2018-11-22T05:44:35.634Z,80.30
2018-11-22T05:45:35.380Z,74.50
2018-11-22T05:46:35.352Z,81.80
2018-11-22T05:47:35.301Z,79.70
2018-11-22T05:48:35.261Z,79.00
2018-11-22T05:49:35.219Z,82.80
2018-11-22T05:50:35.182Z,81.90
2018-11-22T05:51:35.154Z,79.60
2018-11-22T05:52:35.107Z,80.50
2018-11-22T05:53:35.062Z,82.10
2018-11-22T05:54:35.033Z,77.90
2018-11-22T05:55:34.984Z,81.80
2018-11-22T05:56:34.961Z,79.50
2018-11-22T05:57:34.905Z,80.20
2018-11-22T05:58:34.866Z,80.00
2018-11-22T05:59:34.823Z,79.10
2018-11-22T06:00:34.791Z,83.80
2018-11-22T06:01:34.743Z,80.60
2018-11-22T06:02:34.715Z,86.10
2018-11-22T06:03:34.665Z,79.70
2018-11-22T06:04:34.623Z,78.40
2018-11-22T06:05:34.583Z,78.90
2018-11-22T06:06:34.549Z,80.90
2018-11-22T06:07:34.516Z,80.10
2018-11-22T06:08:45.230Z,83.10
2018-11-22T06:09:34.423Z,84.40
2018-11-22T06:10:34.389Z,73.20
2018-11-22T06:11:34.348Z,82.60
2018-11-22T06:12:34.318Z,79.60
2018-11-22T06:13:34.265Z,77.00
2018-11-22T06:16:24.510Z,79.70
2018-11-22T06:17:24.484Z,85.20
2018-11-22T06:18:24.420Z,83.20
2018-11-22T06:19:24.382Z,75.40
2018-11-22T06:20:24.349Z,78.00
2018-11-22T06:21:24.310Z,79.90
2018-11-22T06:22:24.279Z,79.90
2018-11-22T06:23:24.222Z,76.00
2018-11-22T06:24:24.188Z,81.20
2018-11-22T06:25:24.145Z,74.20
2018-11-22T06:26:24.100Z,83.80
2018-11-22T06:27:24.061Z,73.90
2018-11-22T06:28:24.031Z,82.50
2018-11-22T06:29:23.982Z,77.90
2018-11-22T06:30:23.948Z,81.50
2018-11-22T06:31:23.899Z,77.70
2018-11-22T06:32:23.867Z,77.10
2018-11-22T06:33:23.830Z,81.60
2018-11-22T06:34:23.778Z,76.10
2018-11-22T06:35:23.741Z,81.30
2018-11-22T06:36:23.711Z,79.80
2018-11-22T06:37:23.663Z,79.90
2018-11-22T06:38:23.632Z,77.20
2018-11-22T06:39:23.589Z,80.00
2018-11-22T06:40:23.543Z,83.90
2018-11-22T06:41:23.502Z,74.60
2018-11-22T06:42:23.462Z,76.50
2018-11-22T06:43:23.431Z,77.60
2018-11-22T06:44:23.381Z,81.30
2018-11-22T06:45:23.878Z,83.30
2018-11-22T06:46:23.304Z,75.70
2018-11-22T06:47:23.266Z,77.40
2018-11-22T06:48:23.234Z,85.70
2018-11-22T06:49:23.183Z,80.10
2018-11-22T06:50:23.138Z,84.20
2018-11-22T06:51:23.105Z,75.20
2018-11-22T06:52:23.064Z,76.30
2018-11-22T06:53:23.047Z,79.10
2018-11-22T06:54:22.984Z,77.90
2018-11-22T06:55:22.943Z,78.50
2018-11-22T06:56:22.911Z,83.00
2018-11-22T06:57:22.867Z,79.30
2018-11-22T06:58:22.827Z,79.20
2018-11-22T06:59:22.794Z,80.60
2018-11-22T07:00:22.749Z,80.40
2018-11-22T07:01:22.707Z,87.60
2018-11-22T07:02:22.672Z,84.80
2018-11-22T07:03:22.627Z,77.30
2018-11-22T07:04:22.595Z,82.80
2018-11-22T07:05:22.546Z,84.70
2018-11-22T07:06:22.502Z,82.80
2018-11-22T07:07:22.504Z,86.70
2018-11-22T07:08:22.425Z,86.90
2018-11-22T07:09:22.441Z,84.10
2018-11-22T07:10:22.347Z,82.80
2018-11-22T07:11:22.331Z,84.50
2018-11-22T07:12:22.281Z,84.10
2018-11-22T07:13:22.274Z,78.30
2018-11-22T07:14:22.213Z,83.60
2018-11-22T07:15:22.160Z,77.10
2018-11-22T07:16:22.112Z,84.50
2018-11-22T07:17:22.071Z,84.10
2018-11-22T07:18:22.040Z,77.90
2018-11-22T07:19:22.007Z,86.30
2018-11-22T07:20:21.963Z,85.70
2018-11-22T07:21:21.913Z,77.80
2018-11-22T07:22:21.876Z,78.40
2018-11-22T07:23:21.842Z,80.00
2018-11-22T07:24:21.817Z,80.70
2018-11-22T07:25:21.758Z,89.70
2018-11-22T07:26:21.716Z,82.30
2018-11-22T07:27:21.686Z,83.40
2018-11-22T07:28:21.659Z,82.70
2018-11-22T07:29:21.618Z,77.90
2018-11-22T07:30:21.560Z,83.50
2018-11-22T07:31:21.561Z,80.40
2018-11-22T07:32:21.481Z,85.20
2018-11-22T07:33:21.445Z,80.30
2018-11-22T07:34:21.415Z,80.30
2018-11-22T07:35:21.382Z,78.70
2018-11-22T07:36:21.327Z,75.00
2018-11-22T07:37:21.293Z,79.90
2018-11-22T07:38:21.250Z,79.60
2018-11-22T07:39:21.223Z,78.30
2018-11-22T07:40:21.163Z,74.00
2018-11-22T07:41:21.138Z,79.30
2018-11-22T07:42:21.112Z,81.10
2018-11-22T07:43:21.050Z,72.50
2018-11-22T07:44:23.708Z,73.40
2018-11-22T07:45:20.957Z,74.20
2018-11-22T07:46:20.918Z,77.40
2018-11-22T07:47:20.877Z,82.80
2018-11-22T07:48:20.837Z,79.30
2018-11-22T07:49:20.812Z,76.80
2018-11-22T07:50:20.764Z,74.60
2018-11-22T07:51:20.719Z,79.00
2018-11-22T07:52:20.700Z,78.00
2018-11-22T07:53:21.242Z,80.30
2018-11-22T07:54:20.616Z,75.10
2018-11-22T07:55:20.569Z,79.50
2018-11-22T07:56:20.528Z,82.50
2018-11-22T07:57:20.492Z,78.80
2018-11-22T07:58:20.448Z,76.20
2018-11-22T07:59:20.416Z,77.70
2018-11-22T08:00:21.247Z,77.40
2018-11-22T08:01:20.338Z,75.30
2018-11-22T08:02:20.284Z,73.10
2018-11-22T08:03:20.265Z,74.10
2018-11-22T08:04:20.217Z,81.40
2018-11-22T08:05:20.175Z,79.30
2018-11-22T08:06:20.127Z,79.00
2018-11-22T08:07:20.092Z,79.80
2018-11-22T08:08:20.047Z,79.00
2018-11-22T08:09:20.023Z,78.70
2018-11-22T08:10:19.971Z,73.30
2018-11-22T08:11:19.928Z,81.20
2018-11-22T08:12:25.775Z,76.70
2018-11-22T08:13:19.854Z,74.00
2018-11-22T08:14:19.821Z,74.50
2018-11-22T08:15:19.773Z,76.30
2018-11-22T08:16:19.731Z,76.30
2018-11-22T08:17:19.696Z,77.40
2018-11-22T08:18:19.654Z,78.60
2018-11-22T08:19:19.906Z,70.90
2018-11-22T08:20:19.574Z,76.30
2018-11-22T08:21:19.565Z,70.30
2018-11-22T08:22:19.505Z,76.10
2018-11-22T08:23:19.457Z,76.50
2018-11-22T08:24:19.428Z,72.00
2018-11-22T08:25:19.379Z,77.50
2018-11-22T08:26:19.341Z,73.70
2018-11-22T08:27:19.295Z,77.00
2018-11-22T08:28:19.263Z,74.50
2018-11-22T08:29:19.229Z,75.10
2018-11-22T08:30:19.178Z,71.50
2018-11-22T08:31:19.142Z,78.50
2018-11-22T08:32:19.098Z,71.50
2018-11-22T08:33:19.062Z,76.20
2018-11-22T08:34:19.045Z,76.70
2018-11-22T08:35:18.990Z,70.00
2018-11-22T08:36:18.950Z,68.10
2018-11-22T08:37:18.920Z,67.50
2018-11-22T08:38:18.875Z,69.10
2018-11-22T08:39:18.837Z,72.40
2018-11-22T08:40:19.754Z,72.10
2018-11-22T08:41:18.750Z,73.20
2018-11-22T08:42:18.712Z,73.20
2018-11-22T08:43:18.673Z,67.30
2018-11-22T08:44:18.645Z,69.50
2018-11-22T08:45:18.621Z,68.20
2018-11-22T08:46:18.552Z,66.10
2018-11-22T08:47:18.507Z,71.10
2018-11-22T08:48:18.480Z,70.70
2018-11-22T08:49:18.438Z,69.60
2018-11-22T08:50:18.433Z,67.70
2018-11-22T08:51:19.268Z,64.90
2018-11-22T08:52:18.320Z,71.80
2018-11-22T08:53:18.283Z,71.60
2018-11-22T08:54:18.236Z,68.30
2018-11-22T08:55:18.216Z,65.20
2018-11-22T08:56:18.174Z,65.50
2018-11-22T08:57:18.128Z,70.20
2018-11-22T08:58:18.080Z,70.60
2018-11-22T08:59:18.046Z,71.90
2018-11-22T09:00:18.013Z,66.30
2018-11-22T09:01:17.963Z,64.70
2018-11-22T09:02:17.926Z,67.50
2018-11-22T09:03:17.885Z,64.80
2018-11-22T09:04:17.848Z,64.80
2018-11-22T09:05:17.822Z,70.00
2018-11-22T09:06:17.765Z,66.60
2018-11-22T09:07:17.727Z,69.30
2018-11-22T09:08:17.688Z,64.70
2018-11-22T09:09:17.653Z,67.70
2018-11-22T09:10:17.621Z,70.50
2018-11-22T09:11:17.568Z,64.50
2018-11-22T09:12:17.532Z,63.30
2018-11-22T09:13:17.495Z,69.80
2018-11-22T09:14:17.455Z,71.20
2018-11-22T09:15:17.428Z,60.00
2018-11-22T09:16:17.378Z,63.80
2018-11-22T09:17:17.336Z,62.40
2018-11-22T09:18:17.306Z,63.60
2018-11-22T09:19:17.257Z,61.60
2018-11-22T09:20:17.239Z,63.80
2018-11-22T09:21:17.184Z,70.60
2018-11-22T09:22:17.144Z,66.50
2018-11-22T09:23:17.105Z,67.70
2018-11-22T09:24:17.491Z,59.60
2018-11-22T09:25:17.044Z,65.60
2018-11-22T09:26:16.986Z,60.00
2018-11-22T09:27:16.950Z,64.70
2018-11-22T09:28:16.911Z,58.70
2018-11-22T09:29:16.879Z,60.20
2018-11-22T09:30:16.839Z,59.60
2018-11-22T09:31:16.788Z,62.10
2018-11-22T09:32:16.755Z,59.30
2018-11-22T09:33:16.712Z,65.10
2018-11-22T09:34:16.678Z,60.30
2018-11-22T09:35:16.723Z,59.90
2018-11-22T09:36:16.591Z,58.10
2018-11-22T09:37:16.561Z,55.40
2018-11-22T09:38:16.516Z,57.80
2018-11-22T09:39:16.477Z,58.10
2018-11-22T09:40:16.446Z,60.60
2018-11-22T09:41:16.397Z,55.40
2018-11-22T09:42:16.405Z,61.90
2018-11-22T09:43:16.325Z,62.00
2018-11-22T09:44:16.286Z,57.40
2018-11-22T09:45:16.269Z,58.70
2018-11-22T09:46:16.231Z,59.40
2018-11-22T09:47:16.191Z,61.50
2018-11-22T09:48:16.123Z,57.90
2018-11-22T09:49:16.093Z,60.70
2018-11-22T09:50:16.063Z,58.20
2018-11-22T09:51:16.010Z,65.80
2018-11-22T09:52:15.970Z,60.20
2018-11-22T09:53:15.933Z,60.70
2018-11-22T09:54:15.891Z,59.90
2018-11-22T09:55:15.873Z,56.10
2018-11-22T09:56:15.817Z,50.50
2018-11-22T09:57:16.038Z,64.30
2018-11-22T09:58:15.738Z,58.30
2018-11-22T09:59:15.725Z,54.20
2018-11-22T10:00:15.670Z,56.10
2018-11-22T10:01:15.619Z,56.40
2018-11-22T10:02:15.580Z,53.20
2018-11-22T10:03:15.604Z,58.60
2018-11-22T10:04:15.502Z,51.70
2018-11-22T10:05:15.809Z,52.20
2018-11-22T10:06:15.433Z,53.50
2018-11-22T10:07:16.286Z,51.50
2018-11-22T10:08:15.344Z,57.20
2018-11-22T10:09:15.394Z,64.90
2018-11-22T10:10:15.277Z,54.50
2018-11-22T10:11:15.230Z,55.30
2018-11-22T10:12:15.198Z,57.50
2018-11-22T10:13:15.273Z,57.30
2018-11-22T10:14:15.112Z,56.10
2018-11-22T10:15:15.082Z,52.00
2018-11-22T10:16:15.040Z,52.00
2018-11-22T10:17:14.996Z,53.50
2018-11-22T10:18:14.958Z,50.80
2018-11-22T10:19:14.918Z,56.10
2018-11-22T10:20:14.884Z,54.90
2018-11-22T10:21:14.845Z,52.20
2018-11-22T10:22:14.802Z,55.40
2018-11-22T10:23:14.778Z,53.20
2018-11-22T10:24:14.780Z,53.40
2018-11-22T10:25:14.693Z,59.10
2018-11-22T10:26:14.673Z,54.10
2018-11-22T10:27:14.617Z,47.90
2018-11-22T10:28:14.571Z,50.90
2018-11-22T10:29:14.577Z,56.60
2018-11-22T10:30:14.584Z,55.20
2018-11-22T10:31:14.450Z,52.70
2018-11-22T10:32:14.426Z,48.20
2018-11-22T10:33:14.378Z,50.30
2018-11-22T10:34:14.337Z,54.40
2018-11-22T10:35:14.323Z,47.50
2018-11-22T10:36:14.268Z,47.20
2018-11-22T10:37:14.221Z,50.70
2018-11-22T10:38:14.210Z,48.70
2018-11-22T10:39:14.194Z,47.80
2018-11-22T10:40:14.107Z,48.60
2018-11-22T10:41:14.077Z,51.00
2018-11-22T10:42:14.030Z,49.80
2018-11-22T10:43:13.994Z,42.50
2018-11-22T10:44:13.953Z,46.30
2018-11-22T10:45:13.915Z,45.80
2018-11-22T10:46:13.894Z,46.40
2018-11-22T10:47:13.838Z,41.00
2018-11-22T10:48:13.821Z,44.20
2018-11-22T10:49:13.780Z,41.00
2018-11-22T10:50:13.739Z,42.80
2018-11-22T10:51:13.810Z,42.60
2018-11-22T10:52:13.652Z,41.90
2018-11-22T10:53:13.612Z,41.80
2018-11-22T10:54:13.577Z,39.40
2018-11-22T10:55:13.533Z,42.50
2018-11-22T10:56:13.516Z,38.40
2018-11-22T10:57:13.461Z,38.90
2018-11-22T10:58:13.421Z,40.70
2018-11-22T10:59:13.428Z,39.70
2018-11-22T11:00:13.334Z,39.00
2018-11-22T11:01:13.308Z,39.30
2018-11-22T11:02:13.268Z,38.30
2018-11-22T11:03:13.226Z,41.80
2018-11-22T11:04:13.188Z,43.20
2018-11-22T11:05:13.148Z,34.10
2018-11-22T11:06:13.121Z,40.50
2018-11-22T11:07:13.071Z,38.40
2018-11-22T11:08:13.034Z,36.60
2018-11-22T11:09:13.000Z,36.80
2018-11-22T11:10:12.976Z,36.60
2018-11-22T11:11:12.924Z,37.40
2018-11-22T11:12:12.892Z,36.60
2018-11-22T11:13:12.836Z,35.40
2018-11-22T11:14:12.796Z,36.70
2018-11-22T11:15:12.761Z,38.00
2018-11-22T11:16:12.746Z,36.70
2018-11-22T11:17:12.688Z,36.30
2018-11-22T11:18:12.649Z,37.50
2018-11-22T11:19:12.624Z,34.80
2018-11-22T11:20:12.576Z,37.40
2018-11-22T11:21:12.558Z,33.20
2018-11-22T11:22:12.492Z,35.10
2018-11-22T11:23:12.468Z,37.20
2018-11-22T11:24:12.418Z,39.70
2018-11-22T11:25:12.380Z,33.20
2018-11-22T11:26:12.347Z,32.00
2018-11-22T11:27:12.299Z,36.40
2018-11-22T11:28:12.261Z,33.40
2018-11-22T11:29:12.814Z,38.00
2018-11-22T11:30:12.193Z,37.70
2018-11-22T11:31:12.155Z,34.50
2018-11-22T11:32:12.107Z,34.50
2018-11-22T11:33:12.075Z,37.10
2018-11-22T11:34:12.033Z,33.30
2018-11-22T11:35:11.998Z,38.90
2018-11-22T11:36:17.776Z,36.30
2018-11-22T11:37:11.919Z,33.80
2018-11-22T11:38:11.887Z,32.60
2018-11-22T11:39:11.841Z,34.00
2018-11-22T11:40:11.801Z,33.40
2018-11-22T11:41:11.774Z,34.10
2018-11-22T11:42:11.725Z,32.80
2018-11-22T11:43:11.719Z,30.40
2018-11-22T11:44:11.644Z,32.00
2018-11-22T11:45:11.625Z,36.10
2018-11-22T11:46:11.592Z,33.20
2018-11-22T11:47:11.542Z,32.50
2018-11-22T11:48:11.498Z,33.70
2018-11-22T11:49:11.457Z,31.60
2018-11-22T11:50:11.429Z,32.10
2018-11-22T11:51:11.389Z,31.60
2018-11-22T11:52:11.353Z,34.10
2018-11-22T11:53:11.303Z,32.70
2018-11-22T11:54:11.267Z,34.30
2018-11-22T11:55:11.227Z,32.20
2018-11-22T11:56:11.195Z,31.30
2018-11-22T11:57:11.167Z,30.30
2018-11-22T11:58:11.116Z,34.50
2018-11-22T11:59:11.083Z,32.80
2018-11-22T12:00:11.034Z,31.60
2018-11-22T12:01:10.995Z,31.70
2018-11-22T12:02:15.217Z,32.60
2018-11-22T12:03:11.024Z,31.70
2018-11-22T12:04:10.900Z,31.40
2018-11-22T12:05:10.879Z,33.90
2018-11-22T12:06:10.820Z,32.90
2018-11-22T12:07:10.787Z,34.20
2018-11-22T12:08:10.741Z,30.00
2018-11-22T12:09:10.700Z,35.50
2018-11-22T12:10:10.691Z,32.50
2018-11-22T12:11:10.618Z,33.80
2018-11-22T12:12:10.594Z,29.80
2018-11-22T12:13:10.543Z,30.50
2018-11-22T12:14:10.505Z,30.80
2018-11-22T12:15:10.470Z,30.50
2018-11-22T12:16:10.457Z,33.00
2018-11-22T12:17:10.402Z,34.80
2018-11-22T12:18:10.348Z,31.40
2018-11-22T12:19:10.308Z,35.40
2018-11-22T12:20:10.290Z,31.40
2018-11-22T12:21:10.239Z,30.70
2018-11-22T12:22:10.213Z,30.90
2018-11-22T12:23:10.173Z,32.40
2018-11-22T12:24:10.121Z,32.30
2018-11-22T12:25:10.082Z,31.00
2018-11-22T12:26:10.038Z,31.30
2018-11-22T12:27:10.018Z,35.50
2018-11-22T12:28:09.966Z,35.80
2018-11-22T12:29:09.927Z,33.00
2018-11-22T12:30:09.903Z,32.30
2018-11-22T12:31:09.851Z,31.20
2018-11-22T12:32:16.883Z,32.00
2018-11-22T12:33:09.776Z,31.40
2018-11-22T12:34:09.737Z,29.00
2018-11-22T12:35:09.694Z,35.80
2018-11-22T12:36:09.656Z,30.30
2018-11-22T12:37:09.627Z,30.00
2018-11-22T12:38:09.579Z,32.20
2018-11-22T12:39:09.550Z,31.30
2018-11-22T12:40:09.502Z,32.10
2018-11-22T12:41:09.466Z,36.80
2018-11-22T12:42:09.436Z,32.90
2018-11-22T12:43:09.403Z,31.40
2018-11-22T12:44:09.393Z,30.70
2018-11-22T12:46:35.107Z,34.10
2018-11-22T12:47:35.075Z,33.00
2018-11-22T12:48:35.030Z,31.90
2018-11-22T12:49:34.994Z,32.50
2018-11-22T12:50:34.952Z,32.60
2018-11-22T12:51:34.911Z,31.90
2018-11-22T12:52:34.885Z,32.10
2018-11-22T12:53:34.836Z,31.50
2018-11-22T12:54:34.796Z,29.50
2018-11-22T12:55:34.762Z,33.50